Terminal Aerodrome Forecast
Issued by NWS La Crosse, WI

Home | Current Version | Previous Version | Text Only | Print | Product List | Glossary On
Versions: 1 2 3 4 5 6 7 8 9 10 11 12 13 14 15 16 17 18 19 20 21 22 23 24 25 26 27 28 29 30 31 32 33 34 35 36 37 38 39 40 41 42 43 44
742
FTUS43 KARX 301735
TAFRST
TAF
KRST 301735Z 3018/0118 08016G25KT 5SM -SHRA BR BKN020
     FM010200 05013KT P6SM VCSH BKN035
     FM011000 03011KT P6SM BKN025=

USA.gov is the U.S. government's official web portal to all federal, state and local government web resources and services.